sensor_id;sensor_type;location;lat;lon;timestamp;P1;durP1;ratioP1;P2;durP2;ratioP2
801;SDS011;383;48.766;9.270;2023-02-15T00:01:05;48.50;;;19.13;;
801;SDS011;383;48.766;9.270;2023-02-15T00:03:32;63.05;;;20.35;;
801;SDS011;383;48.766;9.270;2023-02-15T00:05:59;47.15;;;19.33;;
801;SDS011;383;48.766;9.270;2023-02-15T00:08:26;44.88;;;18.60;;
801;SDS011;383;48.766;9.270;2023-02-15T00:10:56;44.33;;;21.40;;
801;SDS011;383;48.766;9.270;2023-02-15T00:13:33;45.35;;;19.52;;
801;SDS011;383;48.766;9.270;2023-02-15T00:16:01;55.25;;;21.90;;
801;SDS011;383;48.766;9.270;2023-02-15T00:18:29;49.03;;;21.48;;
801;SDS011;383;48.766;9.270;2023-02-15T00:20:56;47.10;;;20.00;;
801;SDS011;383;48.766;9.270;2023-02-15T00:23:23;45.08;;;20.50;;
801;SDS011;383;48.766;9.270;2023-02-15T00:25:51;46.53;;;18.70;;
801;SDS011;383;48.766;9.270;2023-02-15T00:28:18;48.80;;;20.02;;
801;SDS011;383;48.766;9.270;2023-02-15T00:30:46;49.10;;;20.48;;
801;SDS011;383;48.766;9.270;2023-02-15T00:33:13;51.95;;;18.98;;
801;SDS011;383;48.766;9.270;2023-02-15T00:35:40;44.88;;;18.45;;
801;SDS011;383;48.766;9.270;2023-02-15T00:38:09;50.25;;;19.05;;
801;SDS011;383;48.766;9.270;2023-02-15T00:40:37;41.70;;;18.70;;
801;SDS011;383;48.766;9.270;2023-02-15T00:43:05;46.50;;;19.27;;
801;SDS011;383;48.766;9.270;2023-02-15T00:45:34;43.75;;;18.75;;
801;SDS011;383;48.766;9.270;2023-02-15T00:48:02;47.17;;;18.48;;
801;SDS011;383;48.766;9.270;2023-02-15T00:50:29;54.10;;;20.30;;
801;SDS011;383;48.766;9.270;2023-02-15T00:52:56;41.35;;;18.65;;
801;SDS011;383;48.766;9.270;2023-02-15T00:55:23;37.70;;;17.38;;
801;SDS011;383;48.766;9.270;2023-02-15T00:57:50;39.28;;;16.80;;
801;SDS011;383;48.766;9.270;2023-02-15T01:00:17;47.28;;;18.17;;
801;SDS011;383;48.766;9.270;2023-02-15T01:02:44;37.10;;;16.77;;
801;SDS011;383;48.766;9.270;2023-02-15T01:05:12;45.25;;;17.67;;
801;SDS011;383;48.766;9.270;2023-02-15T01:07:39;41.72;;;19.05;;
801;SDS011;383;48.766;9.270;2023-02-15T01:10:06;43.30;;;18.50;;
801;SDS011;383;48.766;9.270;2023-02-15T01:12:33;46.72;;;18.73;;
801;SDS011;383;48.766;9.270;2023-02-15T01:15:00;55.63;;;19.48;;
801;SDS011;383;48.766;9.270;2023-02-15T01:17:27;42.78;;;17.98;;
801;SDS011;383;48.766;9.270;2023-02-15T01:19:53;43.38;;;17.58;;
801;SDS011;383;48.766;9.270;2023-02-15T01:22:22;45.58;;;19.33;;
801;SDS011;383;48.766;9.270;2023-02-15T01:24:51;56.10;;;20.88;;
801;SDS011;383;48.766;9.270;2023-02-15T01:27:18;39.65;;;17.35;;
801;SDS011;383;48.766;9.270;2023-02-15T01:29:45;37.38;;;18.02;;
801;SDS011;383;48.766;9.270;2023-02-15T01:32:14;44.00;;;18.60;;
801;SDS011;383;48.766;9.270;2023-02-15T01:34:41;41.60;;;18.15;;
801;SDS011;383;48.766;9.270;2023-02-15T01:37:07;45.08;;;18.02;;
801;SDS011;383;48.766;9.270;2023-02-15T01:39:36;43.78;;;19.13;;
801;SDS011;383;48.766;9.270;2023-02-15T01:42:02;50.72;;;19.92;;
801;SDS011;383;48.766;9.270;2023-02-15T01:44:51;41.25;;;18.70;;
801;SDS011;383;48.766;9.270;2023-02-15T01:47:20;37.67;;;16.20;;
801;SDS011;383;48.766;9.270;2023-02-15T01:49:49;35.92;;;17.45;;
801;SDS011;383;48.766;9.270;2023-02-15T01:52:27;44.30;;;17.85;;
801;SDS011;383;48.766;9.270;2023-02-15T01:54:57;39.25;;;19.40;;
801;SDS011;383;48.766;9.270;2023-02-15T01:57:24;51.15;;;21.45;;
801;SDS011;383;48.766;9.270;2023-02-15T01:59:55;40.13;;;17.83;;
801;SDS011;383;48.766;9.270;2023-02-15T02:02:24;49.55;;;20.65;;
801;SDS011;383;48.766;9.270;2023-02-15T02:04:53;41.10;;;18.95;;
801;SDS011;383;48.766;9.270;2023-02-15T02:07:24;49.70;;;21.25;;
801;SDS011;383;48.766;9.270;2023-02-15T02:09:54;50.15;;;19.95;;
801;SDS011;383;48.766;9.270;2023-02-15T02:12:23;44.05;;;20.02;;
801;SDS011;383;48.766;9.270;2023-02-15T02:14:51;43.25;;;19.30;;
801;SDS011;383;48.766;9.270;2023-02-15T02:17:20;44.38;;;21.30;;
801;SDS011;383;48.766;9.270;2023-02-15T02:23:02;45.13;;;19.15;;
801;SDS011;383;48.766;9.270;2023-02-15T02:25:47;33.67;;;17.95;;
801;SDS011;383;48.766;9.270;2023-02-15T02:28:34;44.08;;;19.00;;
801;SDS011;383;48.766;9.270;2023-02-15T02:34:12;48.85;;;18.83;;
801;SDS011;383;48.766;9.270;2023-02-15T02:36:45;42.15;;;19.15;;
801;SDS011;383;48.766;9.270;2023-02-15T02:39:23;47.50;;;18.67;;
801;SDS011;383;48.766;9.270;2023-02-15T02:41:58;39.30;;;16.73;;
801;SDS011;383;48.766;9.270;2023-02-15T02:44:34;40.50;;;16.83;;
801;SDS011;383;48.766;9.270;2023-02-15T02:47:08;44.60;;;19.45;;
801;SDS011;383;48.766;9.270;2023-02-15T02:49:40;43.75;;;18.58;;
801;SDS011;383;48.766;9.270;2023-02-15T02:55:07;42.38;;;17.55;;
801;SDS011;383;48.766;9.270;2023-02-15T02:57:40;50.25;;;18.52;;
801;SDS011;383;48.766;9.270;2023-02-15T03:00:13;46.78;;;18.35;;
801;SDS011;383;48.766;9.270;2023-02-15T03:02:41;47.70;;;17.65;;
801;SDS011;383;48.766;9.270;2023-02-15T03:05:13;38.92;;;17.67;;
801;SDS011;383;48.766;9.270;2023-02-15T03:07:43;36.88;;;16.98;;
801;SDS011;383;48.766;9.270;2023-02-15T03:10:14;45.08;;;19.42;;
801;SDS011;383;48.766;9.270;2023-02-15T03:23:07;45.88;;;18.05;;
801;SDS011;383;48.766;9.270;2023-02-15T03:25:39;42.28;;;17.52;;
801;SDS011;383;48.766;9.270;2023-02-15T03:28:08;34.20;;;16.58;;
801;SDS011;383;48.766;9.270;2023-02-15T03:30:37;44.60;;;18.75;;
801;SDS011;383;48.766;9.270;2023-02-15T03:33:08;35.60;;;15.63;;
801;SDS011;383;48.766;9.270;2023-02-15T03:35:36;42.55;;;16.63;;
801;SDS011;383;48.766;9.270;2023-02-15T03:38:10;37.47;;;16.52;;
801;SDS011;383;48.766;9.270;2023-02-15T03:40:44;42.22;;;17.83;;
801;SDS011;383;48.766;9.270;2023-02-15T03:43:32;56.78;;;19.10;;
801;SDS011;383;48.766;9.270;2023-02-15T03:46:04;46.90;;;18.17;;
801;SDS011;383;48.766;9.270;2023-02-15T03:48:38;40.50;;;17.50;;
801;SDS011;383;48.766;9.270;2023-02-15T03:51:08;38.92;;;19.67;;
801;SDS011;383;48.766;9.270;2023-02-15T03:53:57;40.47;;;18.08;;
801;SDS011;383;48.766;9.270;2023-02-15T03:56:24;39.70;;;16.17;;
801;SDS011;383;48.766;9.270;2023-02-15T03:58:52;41.28;;;17.92;;
801;SDS011;383;48.766;9.270;2023-02-15T04:01:37;47.78;;;20.00;;
801;SDS011;383;48.766;9.270;2023-02-15T04:04:23;45.85;;;17.52;;
801;SDS011;383;48.766;9.270;2023-02-15T04:06:53;43.67;;;19.30;;
801;SDS011;383;48.766;9.270;2023-02-15T04:09:21;47.58;;;21.30;;
801;SDS011;383;48.766;9.270;2023-02-15T04:12:05;49.28;;;22.20;;
801;SDS011;383;48.766;9.270;2023-02-15T04:14:32;50.38;;;23.38;;
801;SDS011;383;48.766;9.270;2023-02-15T04:17:17;48.72;;;22.23;;
801;SDS011;383;48.766;9.270;2023-02-15T04:19:44;46.45;;;20.08;;
801;SDS011;383;48.766;9.270;2023-02-15T04:22:28;44.65;;;19.58;;
801;SDS011;383;48.766;9.270;2023-02-15T04:25:13;42.30;;;19.75;;
801;SDS011;383;48.766;9.270;2023-02-15T04:27:41;48.00;;;21.13;;
801;SDS011;383;48.766;9.270;2023-02-15T04:30:09;47.75;;;19.15;;
801;SDS011;383;48.766;9.270;2023-02-15T04:32:37;46.70;;;21.17;;
801;SDS011;383;48.766;9.270;2023-02-15T04:35:05;39.85;;;18.10;;
801;SDS011;383;48.766;9.270;2023-02-15T04:37:32;39.97;;;18.48;;
801;SDS011;383;48.766;9.270;2023-02-15T04:39:59;52.03;;;20.08;;
801;SDS011;383;48.766;9.270;2023-02-15T04:42:27;39.67;;;18.65;;
801;SDS011;383;48.766;9.270;2023-02-15T04:44:54;41.88;;;17.80;;
801;SDS011;383;48.766;9.270;2023-02-15T04:47:21;46.42;;;19.08;;
801;SDS011;383;48.766;9.270;2023-02-15T04:49:47;43.85;;;18.33;;
801;SDS011;383;48.766;9.270;2023-02-15T04:52:14;44.15;;;19.27;;
801;SDS011;383;48.766;9.270;2023-02-15T04:54:42;39.55;;;18.42;;
801;SDS011;383;48.766;9.270;2023-02-15T04:57:09;45.67;;;19.80;;
801;SDS011;383;48.766;9.270;2023-02-15T04:59:37;37.90;;;19.67;;
801;SDS011;383;48.766;9.270;2023-02-15T05:02:04;35.88;;;18.52;;
801;SDS011;383;48.766;9.270;2023-02-15T05:04:30;42.28;;;18.90;;
801;SDS011;383;48.766;9.270;2023-02-15T05:06:57;44.67;;;21.50;;
801;SDS011;383;48.766;9.270;2023-02-15T05:09:24;52.28;;;20.75;;
801;SDS011;383;48.766;9.270;2023-02-15T05:11:50;51.80;;;21.27;;
801;SDS011;383;48.766;9.270;2023-02-15T05:14:17;44.53;;;20.35;;
801;SDS011;383;48.766;9.270;2023-02-15T05:16:45;55.45;;;20.73;;
801;SDS011;383;48.766;9.270;2023-02-15T05:19:13;47.88;;;19.85;;
801;SDS011;383;48.766;9.270;2023-02-15T05:21:39;47.90;;;18.63;;
801;SDS011;383;48.766;9.270;2023-02-15T05:24:06;54.42;;;20.73;;
801;SDS011;383;48.766;9.270;2023-02-15T05:26:53;49.78;;;20.17;;
801;SDS011;383;48.766;9.270;2023-02-15T05:29:37;48.90;;;22.20;;
801;SDS011;383;48.766;9.270;2023-02-15T05:32:05;47.42;;;20.98;;
801;SDS011;383;48.766;9.270;2023-02-15T05:34:32;56.67;;;20.38;;
801;SDS011;383;48.766;9.270;2023-02-15T05:36:58;54.97;;;20.95;;
801;SDS011;383;48.766;9.270;2023-02-15T05:39:25;51.90;;;19.25;;
801;SDS011;383;48.766;9.270;2023-02-15T05:41:52;55.42;;;21.00;;
801;SDS011;383;48.766;9.270;2023-02-15T05:44:18;70.47;;;25.42;;
801;SDS011;383;48.766;9.270;2023-02-15T05:46:45;59.60;;;23.75;;
801;SDS011;383;48.766;9.270;2023-02-15T05:49:13;58.65;;;22.10;;
801;SDS011;383;48.766;9.270;2023-02-15T05:51:40;59.38;;;22.80;;
801;SDS011;383;48.766;9.270;2023-02-15T05:54:06;53.05;;;21.70;;
801;SDS011;383;48.766;9.270;2023-02-15T05:56:33;48.85;;;23.05;;
801;SDS011;383;48.766;9.270;2023-02-15T05:59:00;42.58;;;22.77;;
801;SDS011;383;48.766;9.270;2023-02-15T06:01:26;51.80;;;22.45;;
801;SDS011;383;48.766;9.270;2023-02-15T06:03:53;50.83;;;20.90;;
801;SDS011;383;48.766;9.270;2023-02-15T06:06:22;54.67;;;24.20;;
801;SDS011;383;48.766;9.270;2023-02-15T06:08:48;48.58;;;21.98;;
801;SDS011;383;48.766;9.270;2023-02-15T06:11:15;65.85;;;23.65;;
801;SDS011;383;48.766;9.270;2023-02-15T06:13:42;72.30;;;26.30;;
801;SDS011;383;48.766;9.270;2023-02-15T06:16:08;78.82;;;27.83;;
801;SDS011;383;48.766;9.270;2023-02-15T06:18:35;60.05;;;24.55;;
801;SDS011;383;48.766;9.270;2023-02-15T06:21:02;61.28;;;25.05;;
801;SDS011;383;48.766;9.270;2023-02-15T06:23:30;69.72;;;24.35;;
801;SDS011;383;48.766;9.270;2023-02-15T06:25:57;62.28;;;24.23;;
801;SDS011;383;48.766;9.270;2023-02-15T06:28:23;55.75;;;21.40;;
801;SDS011;383;48.766;9.270;2023-02-15T06:30:50;71.55;;;24.00;;
801;SDS011;383;48.766;9.270;2023-02-15T06:33:18;58.03;;;22.98;;
801;SDS011;383;48.766;9.270;2023-02-15T06:35:44;57.58;;;22.05;;
801;SDS011;383;48.766;9.270;2023-02-15T06:38:11;58.72;;;21.50;;
801;SDS011;383;48.766;9.270;2023-02-15T06:40:39;50.05;;;20.23;;
801;SDS011;383;48.766;9.270;2023-02-15T06:43:06;50.13;;;20.10;;
801;SDS011;383;48.766;9.270;2023-02-15T06:45:32;59.45;;;19.88;;
801;SDS011;383;48.766;9.270;2023-02-15T06:47:59;42.13;;;17.58;;
801;SDS011;383;48.766;9.270;2023-02-15T06:50:26;47.78;;;19.33;;
801;SDS011;383;48.766;9.270;2023-02-15T06:52:55;48.17;;;19.92;;
801;SDS011;383;48.766;9.270;2023-02-15T06:55:22;47.90;;;21.35;;
801;SDS011;383;48.766;9.270;2023-02-15T06:57:50;55.58;;;20.75;;
801;SDS011;383;48.766;9.270;2023-02-15T07:00:17;46.00;;;21.17;;
801;SDS011;383;48.766;9.270;2023-02-15T07:02:44;49.15;;;20.33;;
801;SDS011;383;48.766;9.270;2023-02-15T07:05:11;52.97;;;20.98;;
801;SDS011;383;48.766;9.270;2023-02-15T07:07:37;49.03;;;20.80;;
801;SDS011;383;48.766;9.270;2023-02-15T07:10:04;46.38;;;20.00;;
801;SDS011;383;48.766;9.270;2023-02-15T07:12:32;40.03;;;20.33;;
801;SDS011;383;48.766;9.270;2023-02-15T07:15:09;46.40;;;20.73;;
801;SDS011;383;48.766;9.270;2023-02-15T07:17:36;53.13;;;19.85;;
801;SDS011;383;48.766;9.270;2023-02-15T07:20:04;46.47;;;20.40;;
801;SDS011;383;48.766;9.270;2023-02-15T07:22:32;47.08;;;21.75;;
801;SDS011;383;48.766;9.270;2023-02-15T07:25:01;48.08;;;20.35;;
801;SDS011;383;48.766;9.270;2023-02-15T07:27:28;55.22;;;21.67;;
801;SDS011;383;48.766;9.270;2023-02-15T07:29:56;49.42;;;22.42;;
801;SDS011;383;48.766;9.270;2023-02-15T07:32:25;54.38;;;22.58;;
801;SDS011;383;48.766;9.270;2023-02-15T07:34:54;49.83;;;22.85;;
801;SDS011;383;48.766;9.270;2023-02-15T07:37:21;45.17;;;20.45;;
801;SDS011;383;48.766;9.270;2023-02-15T07:39:47;50.72;;;23.92;;
801;SDS011;383;48.766;9.270;2023-02-15T07:42:14;56.50;;;25.52;;
801;SDS011;383;48.766;9.270;2023-02-15T07:44:42;52.38;;;23.70;;
801;SDS011;383;48.766;9.270;2023-02-15T07:47:09;53.70;;;24.45;;
801;SDS011;383;48.766;9.270;2023-02-15T07:49:38;56.45;;;23.77;;
801;SDS011;383;48.766;9.270;2023-02-15T07:52:05;51.20;;;23.85;;
801;SDS011;383;48.766;9.270;2023-02-15T07:54:31;60.17;;;25.67;;
801;SDS011;383;48.766;9.270;2023-02-15T07:57:00;48.67;;;23.48;;
801;SDS011;383;48.766;9.270;2023-02-15T07:59:27;58.00;;;23.58;;
801;SDS011;383;48.766;9.270;2023-02-15T08:01:53;45.00;;;20.85;;
801;SDS011;383;48.766;9.270;2023-02-15T08:04:21;39.33;;;19.15;;
801;SDS011;383;48.766;9.270;2023-02-15T08:06:51;48.53;;;19.90;;
801;SDS011;383;48.766;9.270;2023-02-15T08:09:18;44.97;;;19.92;;
801;SDS011;383;48.766;9.270;2023-02-15T08:11:46;50.92;;;19.45;;
801;SDS011;383;48.766;9.270;2023-02-15T08:14:14;56.47;;;23.40;;
801;SDS011;383;48.766;9.270;2023-02-15T08:16:42;49.78;;;20.35;;
801;SDS011;383;48.766;9.270;2023-02-15T08:19:10;45.63;;;20.73;;
801;SDS011;383;48.766;9.270;2023-02-15T08:21:39;47.78;;;20.05;;
801;SDS011;383;48.766;9.270;2023-02-15T08:24:08;50.70;;;22.23;;
801;SDS011;383;48.766;9.270;2023-02-15T08:26:36;53.53;;;22.35;;
801;SDS011;383;48.766;9.270;2023-02-15T08:29:04;47.28;;;19.58;;
801;SDS011;383;48.766;9.270;2023-02-15T08:31:32;40.97;;;19.23;;
801;SDS011;383;48.766;9.270;2023-02-15T08:34:00;51.67;;;22.75;;
801;SDS011;383;48.766;9.270;2023-02-15T08:36:27;57.47;;;21.00;;
801;SDS011;383;48.766;9.270;2023-02-15T08:38:57;59.00;;;23.73;;
801;SDS011;383;48.766;9.270;2023-02-15T08:41:26;39.60;;;19.05;;
801;SDS011;383;48.766;9.270;2023-02-15T08:43:55;60.55;;;21.15;;
801;SDS011;383;48.766;9.270;2023-02-15T08:46:24;41.55;;;19.58;;
801;SDS011;383;48.766;9.270;2023-02-15T08:48:52;45.00;;;21.38;;
801;SDS011;383;48.766;9.270;2023-02-15T08:51:20;49.50;;;20.73;;
801;SDS011;383;48.766;9.270;2023-02-15T08:53:49;57.00;;;21.20;;
801;SDS011;383;48.766;9.270;2023-02-15T08:56:18;46.63;;;22.05;;
801;SDS011;383;48.766;9.270;2023-02-15T08:58:47;43.67;;;20.00;;
801;SDS011;383;48.766;9.270;2023-02-15T09:01:14;54.90;;;21.50;;
801;SDS011;383;48.766;9.270;2023-02-15T09:03:45;45.90;;;20.52;;
801;SDS011;383;48.766;9.270;2023-02-15T09:06:12;47.92;;;20.20;;
801;SDS011;383;48.766;9.270;2023-02-15T09:08:40;51.95;;;21.20;;
801;SDS011;383;48.766;9.270;2023-02-15T09:11:08;47.72;;;19.38;;
801;SDS011;383;48.766;9.270;2023-02-15T09:13:36;38.95;;;18.90;;
801;SDS011;383;48.766;9.270;2023-02-15T09:16:05;50.67;;;20.02;;
801;SDS011;383;48.766;9.270;2023-02-15T09:18:34;42.78;;;18.95;;
801;SDS011;383;48.766;9.270;2023-02-15T09:21:12;52.53;;;22.33;;
801;SDS011;383;48.766;9.270;2023-02-15T09:23:40;43.33;;;18.83;;
801;SDS011;383;48.766;9.270;2023-02-15T09:26:07;42.72;;;19.05;;
801;SDS011;383;48.766;9.270;2023-02-15T09:28:35;43.17;;;20.15;;
801;SDS011;383;48.766;9.270;2023-02-15T09:31:08;49.22;;;20.88;;
801;SDS011;383;48.766;9.270;2023-02-15T09:33:37;53.53;;;20.75;;
801;SDS011;383;48.766;9.270;2023-02-15T09:36:05;40.95;;;19.40;;
801;SDS011;383;48.766;9.270;2023-02-15T09:38:40;48.88;;;22.10;;
801;SDS011;383;48.766;9.270;2023-02-15T09:41:16;45.67;;;18.42;;
801;SDS011;383;48.766;9.270;2023-02-15T09:44:01;51.10;;;21.40;;
801;SDS011;383;48.766;9.270;2023-02-15T09:46:42;51.25;;;19.70;;
801;SDS011;383;48.766;9.270;2023-02-15T09:49:26;60.95;;;21.15;;
801;SDS011;383;48.766;9.270;2023-02-15T09:52:07;47.70;;;19.00;;
801;SDS011;383;48.766;9.270;2023-02-15T09:54:46;49.83;;;21.17;;
801;SDS011;383;48.766;9.270;2023-02-15T09:57:25;40.63;;;20.33;;
801;SDS011;383;48.766;9.270;2023-02-15T10:00:00;51.90;;;22.00;;
801;SDS011;383;48.766;9.270;2023-02-15T10:02:39;49.22;;;21.50;;
801;SDS011;383;48.766;9.270;2023-02-15T10:05:18;38.88;;;19.70;;
801;SDS011;383;48.766;9.270;2023-02-15T10:08:06;50.40;;;20.92;;
801;SDS011;383;48.766;9.270;2023-02-15T10:10:57;45.22;;;20.02;;
801;SDS011;383;48.766;9.270;2023-02-15T10:13:52;57.15;;;21.13;;
801;SDS011;383;48.766;9.270;2023-02-15T10:16:29;43.60;;;19.75;;
801;SDS011;383;48.766;9.270;2023-02-15T10:19:05;44.97;;;19.00;;
801;SDS011;383;48.766;9.270;2023-02-15T10:21:46;50.95;;;23.15;;
801;SDS011;383;48.766;9.270;2023-02-15T10:24:23;44.40;;;22.02;;
801;SDS011;383;48.766;9.270;2023-02-15T10:26:54;57.28;;;21.98;;
801;SDS011;383;48.766;9.270;2023-02-15T10:29:27;43.97;;;20.25;;
801;SDS011;383;48.766;9.270;2023-02-15T10:31:58;44.55;;;19.80;;
801;SDS011;383;48.766;9.270;2023-02-15T10:34:34;49.97;;;21.23;;
801;SDS011;383;48.766;9.270;2023-02-15T10:37:08;52.33;;;22.38;;
801;SDS011;383;48.766;9.270;2023-02-15T10:39:51;60.05;;;22.08;;
801;SDS011;383;48.766;9.270;2023-02-15T10:42:25;53.55;;;23.90;;
801;SDS011;383;48.766;9.270;2023-02-15T10:45:06;45.17;;;20.98;;
801;SDS011;383;48.766;9.270;2023-02-15T10:50:47;41.25;;;19.55;;
801;SDS011;383;48.766;9.270;2023-02-15T10:53:26;51.90;;;21.58;;
801;SDS011;383;48.766;9.270;2023-02-15T10:56:12;50.30;;;22.30;;
801;SDS011;383;48.766;9.270;2023-02-15T10:58:49;42.10;;;19.85;;
801;SDS011;383;48.766;9.270;2023-02-15T11:01:25;37.05;;;19.48;;
801;SDS011;383;48.766;9.270;2023-02-15T11:04:05;43.05;;;20.45;;
801;SDS011;383;48.766;9.270;2023-02-15T11:06:46;38.13;;;19.88;;
801;SDS011;383;48.766;9.270;2023-02-15T11:09:17;38.58;;;20.23;;
801;SDS011;383;48.766;9.270;2023-02-15T11:11:47;42.13;;;20.27;;
801;SDS011;383;48.766;9.270;2023-02-15T11:14:17;38.60;;;19.23;;
801;SDS011;383;48.766;9.270;2023-02-15T11:16:50;41.92;;;19.40;;
801;SDS011;383;48.766;9.270;2023-02-15T11:19:23;40.60;;;21.63;;
801;SDS011;383;48.766;9.270;2023-02-15T11:21:57;38.25;;;18.88;;
801;SDS011;383;48.766;9.270;2023-02-15T11:24:43;41.50;;;21.63;;
801;SDS011;383;48.766;9.270;2023-02-15T11:27:21;43.58;;;19.48;;
801;SDS011;383;48.766;9.270;2023-02-15T11:29:56;50.30;;;20.50;;
801;SDS011;383;48.766;9.270;2023-02-15T11:32:28;61.35;;;22.65;;
801;SDS011;383;48.766;9.270;2023-02-15T11:34:58;46.00;;;21.92;;
801;SDS011;383;48.766;9.270;2023-02-15T11:37:33;66.13;;;25.77;;
801;SDS011;383;48.766;9.270;2023-02-15T11:40:08;43.25;;;21.05;;
801;SDS011;383;48.766;9.270;2023-02-15T11:42:44;52.35;;;21.40;;
801;SDS011;383;48.766;9.270;2023-02-15T11:45:18;56.88;;;23.00;;
801;SDS011;383;48.766;9.270;2023-02-15T11:47:49;44.78;;;20.50;;
801;SDS011;383;48.766;9.270;2023-02-15T11:50:17;42.75;;;20.67;;
801;SDS011;383;48.766;9.270;2023-02-15T11:52:48;44.17;;;20.45;;
801;SDS011;383;48.766;9.270;2023-02-15T11:55:18;41.22;;;21.85;;
801;SDS011;383;48.766;9.270;2023-02-15T11:57:48;42.40;;;21.35;;
801;SDS011;383;48.766;9.270;2023-02-15T12:00:26;50.47;;;22.98;;
801;SDS011;383;48.766;9.270;2023-02-15T12:03:01;45.95;;;20.67;;
801;SDS011;383;48.766;9.270;2023-02-15T12:05:33;43.63;;;19.65;;
801;SDS011;383;48.766;9.270;2023-02-15T12:08:08;39.63;;;19.35;;
801;SDS011;383;48.766;9.270;2023-02-15T12:10:41;49.63;;;19.67;;
801;SDS011;383;48.766;9.270;2023-02-15T12:13:14;33.35;;;17.92;;
801;SDS011;383;48.766;9.270;2023-02-15T12:15:44;38.42;;;18.20;;
801;SDS011;383;48.766;9.270;2023-02-15T12:18:17;36.35;;;18.98;;
801;SDS011;383;48.766;9.270;2023-02-15T12:20:47;39.67;;;19.48;;
801;SDS011;383;48.766;9.270;2023-02-15T12:23:17;39.10;;;19.02;;
801;SDS011;383;48.766;9.270;2023-02-15T12:25:48;48.75;;;20.25;;
801;SDS011;383;48.766;9.270;2023-02-15T12:28:23;40.15;;;18.13;;
801;SDS011;383;48.766;9.270;2023-02-15T12:30:53;40.25;;;17.38;;
801;SDS011;383;48.766;9.270;2023-02-15T12:33:24;56.80;;;20.02;;
801;SDS011;383;48.766;9.270;2023-02-15T12:35:55;44.95;;;18.20;;
801;SDS011;383;48.766;9.270;2023-02-15T12:38:27;43.38;;;18.60;;
801;SDS011;383;48.766;9.270;2023-02-15T12:40:57;32.58;;;19.45;;
801;SDS011;383;48.766;9.270;2023-02-15T12:43:26;35.08;;;18.67;;
801;SDS011;383;48.766;9.270;2023-02-15T12:45:56;36.13;;;16.92;;
801;SDS011;383;48.766;9.270;2023-02-15T12:48:40;33.42;;;18.85;;
801;SDS011;383;48.766;9.270;2023-02-15T12:51:08;45.03;;;17.67;;
801;SDS011;383;48.766;9.270;2023-02-15T12:53:40;39.00;;;17.98;;
801;SDS011;383;48.766;9.270;2023-02-15T12:56:10;40.25;;;17.63;;
801;SDS011;383;48.766;9.270;2023-02-15T12:58:37;33.92;;;18.23;;
801;SDS011;383;48.766;9.270;2023-02-15T13:01:12;32.97;;;18.60;;
801;SDS011;383;48.766;9.270;2023-02-15T13:03:52;42.00;;;18.40;;
801;SDS011;383;48.766;9.270;2023-02-15T13:06:22;35.03;;;18.75;;
801;SDS011;383;48.766;9.270;2023-02-15T13:08:51;34.05;;;18.90;;
801;SDS011;383;48.766;9.270;2023-02-15T13:11:20;31.88;;;16.83;;
801;SDS011;383;48.766;9.270;2023-02-15T13:13:51;38.20;;;18.95;;
801;SDS011;383;48.766;9.270;2023-02-15T13:16:20;31.25;;;17.33;;
801;SDS011;383;48.766;9.270;2023-02-15T13:18:54;37.25;;;19.35;;
801;SDS011;383;48.766;9.270;2023-02-15T13:21:21;38.30;;;19.55;;
801;SDS011;383;48.766;9.270;2023-02-15T13:23:55;29.58;;;16.67;;
801;SDS011;383;48.766;9.270;2023-02-15T13:26:26;43.35;;;19.42;;
801;SDS011;383;48.766;9.270;2023-02-15T13:28:56;42.50;;;19.50;;
801;SDS011;383;48.766;9.270;2023-02-15T13:31:27;32.85;;;18.15;;
801;SDS011;383;48.766;9.270;2023-02-15T13:33:58;33.63;;;18.67;;
801;SDS011;383;48.766;9.270;2023-02-15T13:36:33;43.35;;;20.17;;
801;SDS011;383;48.766;9.270;2023-02-15T13:39:17;41.45;;;19.23;;
801;SDS011;383;48.766;9.270;2023-02-15T13:41:52;36.45;;;20.30;;
801;SDS011;383;48.766;9.270;2023-02-15T13:47:30;43.33;;;21.23;;
801;SDS011;383;48.766;9.270;2023-02-15T13:50:10;44.47;;;21.55;;
801;SDS011;383;48.766;9.270;2023-02-15T13:52:47;42.47;;;19.50;;
801;SDS011;383;48.766;9.270;2023-02-15T13:55:23;43.45;;;20.38;;
801;SDS011;383;48.766;9.270;2023-02-15T13:58:09;38.83;;;20.45;;
801;SDS011;383;48.766;9.270;2023-02-15T14:00:56;43.78;;;20.50;;
801;SDS011;383;48.766;9.270;2023-02-15T14:06:29;46.17;;;21.90;;
801;SDS011;383;48.766;9.270;2023-02-15T14:09:07;36.95;;;19.77;;
801;SDS011;383;48.766;9.270;2023-02-15T14:11:49;40.40;;;22.42;;
801;SDS011;383;48.766;9.270;2023-02-15T14:14:25;43.65;;;22.15;;
801;SDS011;383;48.766;9.270;2023-02-15T14:17:14;39.38;;;20.48;;
801;SDS011;383;48.766;9.270;2023-02-15T14:19:48;42.22;;;22.77;;
801;SDS011;383;48.766;9.270;2023-02-15T14:22:22;48.38;;;21.45;;
801;SDS011;383;48.766;9.270;2023-02-15T14:24:58;42.05;;;24.38;;
801;SDS011;383;48.766;9.270;2023-02-15T14:27:38;41.97;;;21.00;;
801;SDS011;383;48.766;9.270;2023-02-15T14:30:13;52.58;;;22.42;;
801;SDS011;383;48.766;9.270;2023-02-15T14:32:45;47.97;;;21.52;;
801;SDS011;383;48.766;9.270;2023-02-15T14:35:16;47.15;;;26.50;;
801;SDS011;383;48.766;9.270;2023-02-15T14:37:46;38.38;;;21.95;;
801;SDS011;383;48.766;9.270;2023-02-15T14:40:19;49.08;;;21.67;;
801;SDS011;383;48.766;9.270;2023-02-15T14:43:18;43.30;;;23.20;;
801;SDS011;383;48.766;9.270;2023-02-15T14:45:52;52.78;;;22.90;;
801;SDS011;383;48.766;9.270;2023-02-15T14:48:22;56.03;;;22.65;;
801;SDS011;383;48.766;9.270;2023-02-15T14:51:06;56.45;;;21.90;;
801;SDS011;383;48.766;9.270;2023-02-15T14:54:00;50.58;;;22.38;;
801;SDS011;383;48.766;9.270;2023-02-15T14:56:44;48.58;;;21.27;;
801;SDS011;383;48.766;9.270;2023-02-15T14:59:39;45.22;;;22.08;;
801;SDS011;383;48.766;9.270;2023-02-15T15:02:13;43.40;;;21.30;;
801;SDS011;383;48.766;9.270;2023-02-15T15:04:54;46.72;;;21.73;;
801;SDS011;383;48.766;9.270;2023-02-15T15:07:26;50.17;;;23.02;;
801;SDS011;383;48.766;9.270;2023-02-15T15:10:06;48.40;;;21.25;;
801;SDS011;383;48.766;9.270;2023-02-15T15:12:41;45.35;;;21.25;;
801;SDS011;383;48.766;9.270;2023-02-15T15:15:12;41.25;;;20.10;;
801;SDS011;383;48.766;9.270;2023-02-15T15:17:59;47.42;;;22.40;;
801;SDS011;383;48.766;9.270;2023-02-15T15:20:43;46.50;;;21.25;;
801;SDS011;383;48.766;9.270;2023-02-15T15:26:19;39.53;;;20.30;;
801;SDS011;383;48.766;9.270;2023-02-15T15:29:02;47.80;;;21.25;;
801;SDS011;383;48.766;9.270;2023-02-15T15:31:38;38.03;;;20.38;;
801;SDS011;383;48.766;9.270;2023-02-15T15:34:15;41.72;;;22.20;;
801;SDS011;383;48.766;9.270;2023-02-15T15:36:54;42.67;;;20.38;;
801;SDS011;383;48.766;9.270;2023-02-15T15:39:48;39.95;;;20.33;;
801;SDS011;383;48.766;9.270;2023-02-15T15:42:20;40.13;;;20.83;;
801;SDS011;383;48.766;9.270;2023-02-15T15:45:08;43.28;;;21.77;;
801;SDS011;383;48.766;9.270;2023-02-15T15:47:45;38.63;;;19.95;;
801;SDS011;383;48.766;9.270;2023-02-15T15:50:20;42.15;;;21.75;;
801;SDS011;383;48.766;9.270;2023-02-15T15:52:48;38.55;;;20.67;;
801;SDS011;383;48.766;9.270;2023-02-15T15:55:16;38.35;;;19.70;;
801;SDS011;383;48.766;9.270;2023-02-15T15:57:44;42.15;;;21.58;;
801;SDS011;383;48.766;9.270;2023-02-15T16:00:22;46.38;;;22.67;;
801;SDS011;383;48.766;9.270;2023-02-15T16:02:53;49.28;;;20.95;;
801;SDS011;383;48.766;9.270;2023-02-15T16:05:20;46.20;;;20.42;;
801;SDS011;383;48.766;9.270;2023-02-15T16:07:48;35.72;;;20.65;;
801;SDS011;383;48.766;9.270;2023-02-15T16:10:21;41.58;;;21.38;;
801;SDS011;383;48.766;9.270;2023-02-15T16:12:49;40.88;;;22.10;;
801;SDS011;383;48.766;9.270;2023-02-15T16:15:17;42.83;;;21.23;;